Time;durP1;ratioP1;P1;durP2;ratioP2;P2;SDS_P1;SDS_P2;PMS_P1;PMS_P2;Temp;Humidity;BMP_temperature;BMP_pressure;BME280_temperature;BME280_humidity;BME280_pressure;Samples;Min_cycle;Max_cycle;Signal;HPM_P1;HPM_P2
2023/06/06 00:01:15;;;;;;;1.38;1.38;;;21.90;68.40;;;;;;5003139;28;20050;-78
2023/06/06 00:03:41;;;;;;;1.70;1.60;;;21.90;68.40;;;;;;5002841;28;20595;-77
2023/06/06 00:06:07;;;;;;;1.75;1.65;;;21.90;68.40;;;;;;5004172;28;20488;-78
2023/06/06 00:08:33;;;;;;;1.27;1.27;;;21.90;68.30;;;;;;5003183;28;20054;-77
2023/06/06 00:11:00;;;;;;;1.60;1.50;;;21.90;68.40;;;;;;5004728;28;20125;-77
2023/06/06 00:13:27;;;;;;;1.50;1.40;;;21.90;68.40;;;;;;5001935;28;20038;-77
2023/06/06 00:15:54;;;;;;;1.70;1.60;;;22.00;68.60;;;;;;4999573;28;20500;-77
2023/06/06 00:18:19;;;;;;;1.60;1.60;;;21.90;68.40;;;;;;4999249;28;20061;-77
2023/06/06 00:20:45;;;;;;;3.47;1.30;;;21.90;68.40;;;;;;5002883;28;20042;-77
2023/06/06 00:23:12;;;;;;;1.50;1.50;;;21.90;68.40;;;;;;5005417;28;20487;-77
2023/06/06 00:25:38;;;;;;;1.40;1.30;;;21.90;68.40;;;;;;5002486;28;20117;-77
2023/06/06 00:28:03;;;;;;;1.60;1.50;;;21.90;68.40;;;;;;4997632;28;20141;-77
2023/06/06 00:30:29;;;;;;;1.30;1.20;;;21.90;68.40;;;;;;5002823;28;20038;-77
2023/06/06 00:32:55;;;;;;;1.35;1.33;;;21.90;68.40;;;;;;5005017;28;20057;-77
2023/06/06 00:35:21;;;;;;;1.08;1.08;;;21.90;68.40;;;;;;5003733;28;20033;-77
2023/06/06 00:37:46;;;;;;;1.20;1.20;;;21.90;68.40;;;;;;5002146;28;20519;-77
2023/06/06 00:40:12;;;;;;;1.50;1.40;;;21.90;68.40;;;;;;5001391;28;20030;-77
2023/06/06 00:42:38;;;;;;;1.83;1.48;;;21.90;68.40;;;;;;5000306;28;20050;-77
2023/06/06 00:45:04;;;;;;;1.77;1.67;;;21.90;68.40;;;;;;4987428;28;20065;-77
2023/06/06 00:47:29;;;;;;;1.60;1.50;;;21.90;68.40;;;;;;5000435;28;20511;-77
2023/06/06 00:49:55;;;;;;;1.50;1.50;;;21.90;69.20;;;;;;4998392;28;20039;-77
2023/06/06 00:52:21;;;;;;;1.83;1.73;;;21.90;68.30;;;;;;5000439;28;20046;-77
2023/06/06 00:54:47;;;;;;;1.20;1.20;;;21.90;68.30;;;;;;4987707;28;20054;-77
2023/06/06 00:57:13;;;;;;;1.45;1.45;;;21.90;68.30;;;;;;5018488;28;20129;-77
2023/06/06 00:59:39;;;;;;;1.92;1.83;;;21.90;68.30;;;;;;5002145;28;20109;-77
2023/06/06 01:02:09;;;;;;;1.52;1.42;;;21.90;68.40;;;;;;4999361;28;20030;-77
2023/06/06 01:04:41;;;;;;;1.02;1.02;;;21.90;68.40;;;;;;4988280;28;20054;-77
2023/06/06 01:07:09;;;;;;;1.38;1.38;;;21.90;68.40;;;;;;5006272;28;20057;-77
2023/06/06 01:09:35;;;;;;;1.25;1.25;;;21.90;68.40;;;;;;4999986;28;20129;-78
2023/06/06 01:12:15;;;;;;;1.40;1.38;;;21.90;68.60;;;;;;4999355;28;20050;-77
2023/06/06 01:14:46;;;;;;;1.42;1.42;;;21.90;68.50;;;;;;5000745;28;20117;-77
2023/06/06 01:17:12;;;;;;;1.60;1.50;;;21.90;68.50;;;;;;4985596;28;20038;-77
2023/06/06 01:19:38;;;;;;;1.60;1.50;;;21.90;68.60;;;;;;4992939;28;20026;-77
2023/06/06 01:22:04;;;;;;;1.88;1.40;;;21.90;68.60;;;;;;5003477;28;20443;-77
2023/06/06 01:24:30;;;;;;;1.30;1.30;;;21.90;68.60;;;;;;4985831;28;20404;-77
2023/06/06 01:26:56;;;;;;;1.25;1.25;;;21.90;68.60;;;;;;5003184;28;20045;-77
2023/06/06 01:29:22;;;;;;;1.10;1.10;;;21.90;69.40;;;;;;5018376;28;20045;-77
2023/06/06 01:31:53;;;;;;;1.20;1.20;;;21.90;68.60;;;;;;5002418;28;20400;-78
2023/06/06 01:34:35;;;;;;;1.50;1.40;;;21.90;68.60;;;;;;5002904;28;20034;-77
2023/06/06 01:37:26;;;;;;;1.38;1.30;;;21.90;68.70;;;;;;5001123;28;20080;-77
2023/06/06 01:39:52;;;;;;;1.35;1.35;;;21.90;68.70;;;;;;4979450;28;20165;-77
2023/06/06 01:42:17;;;;;;;1.05;1.05;;;21.90;68.70;;;;;;5001668;28;20034;-78
2023/06/06 01:44:43;;;;;;;1.40;1.40;;;21.90;68.70;;;;;;5001646;28;20053;-77
2023/06/06 01:47:09;;;;;;;1.63;1.63;;;21.90;68.80;;;;;;5005402;28;20042;-78
2023/06/06 01:49:35;;;;;;;1.70;1.60;;;21.90;68.80;;;;;;4997361;28;20482;-77
2023/06/06 01:52:00;;;;;;;1.27;1.27;;;21.80;68.70;;;;;;5001025;28;20041;-77
2023/06/06 01:54:26;;;;;;;1.60;1.50;;;21.90;68.80;;;;;;5001857;28;20045;-77
2023/06/06 01:56:52;;;;;;;1.50;1.40;;;21.90;68.80;;;;;;5000829;28;20045;-77
2023/06/06 01:59:17;;;;;;;1.45;1.42;;;21.90;68.80;;;;;;5006582;28;20148;-77
2023/06/06 02:01:43;;;;;;;1.42;1.40;;;21.90;68.80;;;;;;5001770;28;20033;-77
2023/06/06 02:04:08;;;;;;;1.35;1.35;;;21.90;68.80;;;;;;5003460;28;20079;-77
2023/06/06 02:06:35;;;;;;;1.20;1.20;;;21.90;68.80;;;;;;5005332;28;20069;-77
2023/06/06 02:09:00;;;;;;;1.65;1.55;;;21.90;68.80;;;;;;4999037;28;20050;-77
2023/06/06 02:11:26;;;;;;;1.25;1.25;;;21.80;68.70;;;;;;5006225;28;20042;-77
2023/06/06 02:13:52;;;;;;;1.10;1.10;;;21.90;68.70;;;;;;4999459;28;20041;-77
2023/06/06 02:16:18;;;;;;;1.30;1.30;;;21.90;68.80;;;;;;5019404;28;20510;-77
2023/06/06 02:18:44;;;;;;;1.48;1.40;;;21.80;68.60;;;;;;5004660;28;20128;-77
2023/06/06 02:21:11;;;;;;;1.20;1.20;;;21.90;69.60;;;;;;5006696;28;20131;-77
2023/06/06 02:23:37;;;;;;;1.20;1.20;;;21.90;68.70;;;;;;5003542;28;20125;-77
2023/06/06 02:26:03;;;;;;;1.20;1.20;;;21.90;68.80;;;;;;5007011;28;20172;-77
2023/06/06 02:28:30;;;;;;;1.20;1.20;;;21.90;68.70;;;;;;5022001;28;20404;-77
2023/06/06 02:30:56;;;;;;;1.20;1.20;;;21.80;68.70;;;;;;4997409;28;20034;-77
2023/06/06 02:33:22;;;;;;;1.48;1.40;;;21.90;68.90;;;;;;5003959;28;20048;-77
2023/06/06 02:35:47;;;;;;;1.20;1.10;;;21.80;69.30;;;;;;4991270;28;20042;-77
2023/06/06 02:38:13;;;;;;;2.33;1.58;;;21.80;69.40;;;;;;5019666;28;20046;-77
2023/06/06 02:40:38;;;;;;;1.55;1.45;;;21.80;69.20;;;;;;5004989;28;20048;-78
2023/06/06 02:43:04;;;;;;;1.20;1.20;;;21.80;69.40;;;;;;4990284;28;20053;-77
2023/06/06 02:45:30;;;;;;;1.85;1.75;;;21.90;69.40;;;;;;5001064;28;20502;-77
2023/06/06 02:47:56;;;;;;;1.20;1.20;;;21.90;69.40;;;;;;5022825;28;20034;-78
2023/06/06 02:50:21;;;;;;;1.35;1.35;;;21.80;69.40;;;;;;5007544;28;20060;-78
2023/06/06 02:52:47;;;;;;;1.10;1.10;;;21.80;69.20;;;;;;5021599;28;20045;-77
2023/06/06 02:55:13;;;;;;;1.20;1.20;;;21.90;69.60;;;;;;5006959;28;20061;-77
2023/06/06 02:57:38;;;;;;;1.30;1.20;;;21.80;69.50;;;;;;5003670;28;20336;-77
2023/06/06 03:00:08;;;;;;;1.20;1.20;;;21.80;69.40;;;;;;5005773;28;20046;-77
2023/06/06 03:02:33;;;;;;;1.67;1.58;;;21.80;69.40;;;;;;5006294;28;20045;-77
2023/06/06 03:04:59;;;;;;;1.10;1.10;;;21.80;69.40;;;;;;5024232;28;20393;-77
2023/06/06 03:07:26;;;;;;;1.33;1.23;;;21.80;69.30;;;;;;5007275;28;20075;-77
2023/06/06 03:09:52;;;;;;;1.65;1.58;;;21.80;69.20;;;;;;4997336;28;20042;-77
2023/06/06 03:12:18;;;;;;;1.15;1.13;;;21.80;69.30;;;;;;4999478;28;20472;-77
2023/06/06 03:14:43;;;;;;;1.40;1.30;;;21.80;69.10;;;;;;4990500;28;20554;-77
2023/06/06 03:17:09;;;;;;;1.10;1.10;;;21.80;69.10;;;;;;5008301;28;20053;-77
2023/06/06 03:19:35;;;;;;;1.15;1.15;;;21.80;69.00;;;;;;5005331;28;20508;-77
2023/06/06 03:22:01;;;;;;;1.02;1.02;;;21.80;69.10;;;;;;5000804;28;20225;-77
2023/06/06 03:24:28;;;;;;;1.27;1.17;;;21.80;69.10;;;;;;5005790;28;20034;-78
2023/06/06 03:26:54;;;;;;;1.58;1.42;;;21.80;69.10;;;;;;5003798;28;20049;-77
2023/06/06 03:29:20;;;;;;;1.10;1.10;;;21.80;69.30;;;;;;5006169;28;20041;-78
2023/06/06 03:31:48;;;;;;;1.25;1.25;;;21.80;69.40;;;;;;5004308;28;20050;-77
2023/06/06 03:34:14;;;;;;;1.10;1.10;;;21.80;69.10;;;;;;5003957;28;20041;-77
2023/06/06 03:36:40;;;;;;;1.58;1.48;;;21.80;68.90;;;;;;5001751;28;20038;-77
2023/06/06 03:39:06;;;;;;;1.40;1.40;;;21.80;68.90;;;;;;5003150;28;20042;-77
2023/06/06 03:41:31;;;;;;;1.67;1.60;;;21.80;68.80;;;;;;5016306;28;20137;-78
2023/06/06 03:43:58;;;;;;;1.40;1.40;;;21.80;68.60;;;;;;5006061;28;20550;-78
2023/06/06 03:46:24;;;;;;;0.98;0.98;;;21.80;68.80;;;;;;5002401;28;20049;-78
2023/06/06 03:48:49;;;;;;;1.13;1.13;;;21.80;68.80;;;;;;5018860;28;20060;-77
2023/06/06 03:51:15;;;;;;;1.10;1.10;;;21.80;68.70;;;;;;5001890;28;20057;-78
2023/06/06 03:53:41;;;;;;;0.95;0.95;;;21.80;68.70;;;;;;5004471;28;20042;-77
2023/06/06 03:56:07;;;;;;;1.50;1.40;;;21.80;68.70;;;;;;5022259;28;20128;-78
2023/06/06 03:58:33;;;;;;;1.10;1.10;;;21.80;68.60;;;;;;4999951;28;20126;-77
2023/06/06 04:00:58;;;;;;;1.20;1.20;;;21.80;68.60;;;;;;5003582;28;20058;-77
2023/06/06 04:03:25;;;;;;;1.20;1.20;;;21.80;68.60;;;;;;5005464;28;20038;-77
2023/06/06 04:05:51;;;;;;;1.40;1.30;;;21.80;68.80;;;;;;5003204;28;20052;-77
2023/06/06 04:08:17;;;;;;;1.40;1.30;;;21.80;69.40;;;;;;5007707;28;20034;-78
2023/06/06 04:10:42;;;;;;;1.63;1.52;;;21.80;68.60;;;;;;4985142;28;20068;-77
2023/06/06 04:13:08;;;;;;;1.50;1.40;;;21.80;68.50;;;;;;5001041;28;20164;-78
2023/06/06 04:15:34;;;;;;;1.20;1.20;;;21.80;68.70;;;;;;4976872;28;20042;-77
2023/06/06 04:18:00;;;;;;;1.20;1.20;;;21.80;68.50;;;;;;5017317;28;20042;-77
2023/06/06 04:20:26;;;;;;;1.30;1.20;;;21.80;68.60;;;;;;4995586;28;20504;-77
2023/06/06 04:22:52;;;;;;;1.80;1.70;;;21.80;68.60;;;;;;5015942;28;20041;-77
2023/06/06 04:25:18;;;;;;;1.20;1.20;;;21.70;68.40;;;;;;5005221;28;20459;-77
2023/06/06 04:27:44;;;;;;;2.22;1.38;;;21.70;68.50;;;;;;4987812;28;20092;-77
2023/06/06 04:30:12;;;;;;;1.15;1.15;;;21.70;68.50;;;;;;5004478;28;20049;-78
2023/06/06 04:32:39;;;;;;;1.33;1.23;;;21.70;68.50;;;;;;5003912;28;20042;-77
2023/06/06 04:35:06;;;;;;;1.17;1.17;;;21.70;68.50;;;;;;5006940;28;20033;-77
2023/06/06 04:37:33;;;;;;;1.23;1.20;;;21.70;68.40;;;;;;4993398;28;20044;-78
2023/06/06 04:40:00;;;;;;;1.10;1.10;;;21.70;68.40;;;;;;5002265;28;20496;-77
2023/06/06 04:42:27;;;;;;;1.25;1.25;;;21.70;68.40;;;;;;5003229;28;20037;-77
2023/06/06 04:44:53;;;;;;;1.30;1.30;;;21.70;68.30;;;;;;5002635;28;20061;-77
2023/06/06 04:47:22;;;;;;;1.50;1.40;;;21.70;68.20;;;;;;5006389;28;20495;-77
2023/06/06 04:49:47;;;;;;;1.30;1.30;;;21.70;68.20;;;;;;5001273;28;20038;-77
2023/06/06 04:52:15;;;;;;;1.13;1.10;;;21.70;68.10;;;;;;5004664;28;20451;-78
2023/06/06 04:54:41;;;;;;;1.33;1.27;;;21.70;68.20;;;;;;5003819;28;20121;-77
2023/06/06 04:57:07;;;;;;;1.55;1.45;;;21.70;68.20;;;;;;5001553;28;20113;-77
2023/06/06 04:59:33;;;;;;;1.10;1.10;;;21.70;68.20;;;;;;5004267;28;20064;-77
2023/06/06 05:01:59;;;;;;;1.20;1.20;;;21.70;68.10;;;;;;5001452;28;20084;-77
2023/06/06 05:04:25;;;;;;;1.20;1.20;;;21.70;68.00;;;;;;5019647;28;20486;-77
2023/06/06 05:06:51;;;;;;;1.20;1.10;;;21.70;68.10;;;;;;5003096;28;20049;-78
2023/06/06 05:09:17;;;;;;;1.40;1.40;;;21.70;68.30;;;;;;5002311;28;20034;-77
2023/06/06 05:11:46;;;;;;;1.23;1.10;;;21.70;68.30;;;;;;4994752;28;20184;-77
2023/06/06 05:14:12;;;;;;;2.42;2.22;;;21.70;68.10;;;;;;5008649;28;20046;-77
2023/06/06 05:16:38;;;;;;;4.80;4.10;;;21.50;64.20;;;;;;4998697;28;20099;-78
2023/06/06 05:19:03;;;;;;;6.85;4.38;;;20.90;61.40;;;;;;4998325;28;20053;-80
2023/06/06 05:21:30;;;;;;;4.80;4.40;;;19.40;65.30;;;;;;4997734;28;20416;-80
2023/06/06 05:23:58;;;;;;;7.80;5.13;;;18.70;68.00;;;;;;5004273;28;20056;-79
2023/06/06 05:26:25;;;;;;;7.15;5.18;;;18.20;69.70;;;;;;5015811;28;20054;-79
2023/06/06 05:29:00;;;;;;;5.31;4.72;;;18.10;70.10;;;;;;4981192;28;10001160;-79
2023/06/06 05:31:26;;;;;;;8.63;5.68;;;18.00;70.90;;;;;;4992375;28;20252;-78
2023/06/06 05:33:52;;;;;;;5.32;4.88;;;17.90;70.50;;;;;;4977414;28;20426;-79
2023/06/06 05:36:18;;;;;;;6.32;5.15;;;17.80;71.50;;;;;;4985105;28;20519;-79
2023/06/06 05:38:43;;;;;;;6.25;4.88;;;17.70;71.90;;;;;;4979283;28;20046;-79
2023/06/06 05:41:09;;;;;;;5.40;4.90;;;17.70;71.30;;;;;;5001499;28;20582;-78
2023/06/06 05:43:34;;;;;;;11.07;6.20;;;17.70;72.20;;;;;;4988123;28;20451;-78
2023/06/06 05:46:01;;;;;;;5.82;5.13;;;17.60;72.30;;;;;;5003281;28;20539;-78
2023/06/06 05:48:26;;;;;;;6.35;5.07;;;17.60;72.80;;;;;;5004085;28;20124;-78
2023/06/06 05:50:52;;;;;;;6.03;5.43;;;17.60;73.00;;;;;;5000125;28;20046;-78
2023/06/06 05:53:17;;;;;;;6.00;5.60;;;17.50;73.00;;;;;;5003974;28;20065;-78
2023/06/06 05:55:43;;;;;;;6.10;5.60;;;17.40;73.40;;;;;;5002010;28;20495;-78
2023/06/06 05:58:08;;;;;;;5.75;5.25;;;17.40;73.60;;;;;;5003982;28;20151;-78
2023/06/06 06:00:35;;;;;;;6.82;5.38;;;17.60;73.30;;;;;;4986415;28;20054;-77
2023/06/06 06:03:01;;;;;;;6.15;5.55;;;17.50;73.20;;;;;;4999786;28;20058;-77
2023/06/06 06:05:30;;;;;;;6.15;5.57;;;17.40;74.20;;;;;;5002820;28;20214;-78
2023/06/06 06:07:59;;;;;;;6.47;5.82;;;17.50;74.10;;;;;;5016870;28;20041;-77
2023/06/06 06:10:27;;;;;;;7.78;5.95;;;17.40;74.30;;;;;;4998693;28;20078;-78
2023/06/06 06:12:53;;;;;;;6.65;6.07;;;17.40;74.50;;;;;;5008743;28;20050;-77
2023/06/06 06:15:19;;;;;;;5.93;5.20;;;17.40;74.60;;;;;;5002824;28;20060;-77
2023/06/06 06:17:45;;;;;;;6.80;5.78;;;17.50;74.10;;;;;;4997607;28;21072;-75
2023/06/06 06:20:13;;;;;;;8.32;6.13;;;17.60;73.80;;;;;;5004507;28;20053;-76
2023/06/06 06:22:38;;;;;;;6.07;5.47;;;17.70;72.90;;;;;;5000292;28;20030;-77
2023/06/06 06:25:05;;;;;;;7.18;5.90;;;17.70;72.60;;;;;;5002432;28;20188;-77
2023/06/06 06:27:31;;;;;;;6.80;6.18;;;17.50;73.40;;;;;;5003033;28;20132;-77
2023/06/06 06:29:57;;;;;;;9.18;6.53;;;17.60;73.40;;;;;;4997726;28;20053;-77
2023/06/06 06:32:23;;;;;;;6.95;6.25;;;17.60;73.20;;;;;;5019780;28;20419;-76
2023/06/06 06:34:49;;;;;;;6.85;6.28;;;17.50;73.80;;;;;;5001471;28;20478;-76
2023/06/06 06:37:16;;;;;;;6.63;6.13;;;17.50;74.00;;;;;;4987348;28;20038;-76
2023/06/06 06:39:42;;;;;;;7.35;6.60;;;17.50;74.10;;;;;;5003677;28;20508;-76
2023/06/06 06:42:07;;;;;;;6.53;5.85;;;17.60;74.30;;;;;;4992294;28;20046;-76
2023/06/06 06:44:33;;;;;;;5.85;5.45;;;17.60;73.60;;;;;;5001832;28;20045;-76
2023/06/06 06:46:58;;;;;;;5.32;4.80;;;17.90;72.70;;;;;;5016890;28;20180;-76
2023/06/06 06:49:24;;;;;;;6.47;5.20;;;18.30;71.50;;;;;;5009038;28;20043;-76
2023/06/06 06:51:52;;;;;;;4.55;4.22;;;18.60;71.30;;;;;;5014832;28;20042;-76
2023/06/06 06:54:21;;;;;;;4.38;3.97;;;18.80;70.20;;;;;;4998397;28;20042;-76
2023/06/06 06:56:48;;;;;;;4.57;4.28;;;19.00;69.50;;;;;;5019031;28;20077;-76
2023/06/06 06:59:14;;;;;;;4.40;4.00;;;19.00;69.50;;;;;;5007600;28;20042;-76
2023/06/06 07:01:40;;;;;;;4.55;3.85;;;19.10;69.30;;;;;;5005724;28;20045;-76
2023/06/06 07:04:06;;;;;;;5.45;3.83;;;19.20;68.90;;;;;;4987960;28;20039;-76
2023/06/06 07:06:33;;;;;;;4.07;3.78;;;19.30;68.30;;;;;;4987752;28;20046;-76
2023/06/06 07:09:00;;;;;;;5.25;3.78;;;19.30;68.20;;;;;;4995824;28;20077;-76
2023/06/06 07:11:26;;;;;;;4.20;3.90;;;19.50;68.20;;;;;;5020159;28;20065;-76
2023/06/06 07:13:52;;;;;;;4.38;3.90;;;19.50;67.80;;;;;;5019079;28;20116;-76
2023/06/06 07:16:18;;;;;;;4.13;3.85;;;19.50;67.80;;;;;;5018506;28;20419;-76
2023/06/06 07:18:47;;;;;;;3.85;3.55;;;19.50;67.80;;;;;;5006140;28;20100;-76
2023/06/06 07:21:12;;;;;;;4.07;3.78;;;19.60;67.80;;;;;;5006231;28;20504;-76
2023/06/06 07:23:39;;;;;;;3.88;3.33;;;19.60;67.60;;;;;;5006107;28;20100;-76
2023/06/06 07:26:06;;;;;;;3.20;2.90;;;19.70;67.50;;;;;;5008272;28;20103;-77
2023/06/06 07:28:32;;;;;;;3.63;3.38;;;19.70;68.30;;;;;;5006185;28;20107;-76
2023/06/06 07:30:58;;;;;;;3.95;3.63;;;19.70;67.30;;;;;;5005266;28;20045;-77
2023/06/06 07:33:24;;;;;;;3.47;3.30;;;19.70;67.30;;;;;;5006667;28;20411;-76
2023/06/06 07:35:49;;;;;;;3.22;2.97;;;19.80;67.30;;;;;;5003795;28;20034;-76
2023/06/06 07:38:15;;;;;;;3.53;3.15;;;19.80;67.10;;;;;;5006788;28;20131;-76
2023/06/06 07:40:41;;;;;;;3.10;2.80;;;19.90;67.00;;;;;;5004435;28;20034;-76
2023/06/06 07:43:07;;;;;;;3.50;3.25;;;19.90;67.00;;;;;;5004755;28;20045;-76
2023/06/06 07:45:32;;;;;;;3.50;3.20;;;19.90;67.00;;;;;;5003826;28;20038;-76
2023/06/06 07:47:58;;;;;;;3.50;3.20;;;19.90;67.00;;;;;;5002702;28;20045;-76
2023/06/06 07:50:25;;;;;;;3.05;2.85;;;19.90;67.00;;;;;;5007379;28;20124;-76
2023/06/06 07:52:50;;;;;;;3.65;3.35;;;20.00;67.00;;;;;;4996806;28;20053;-76
2023/06/06 07:55:16;;;;;;;3.10;2.60;;;20.00;67.70;;;;;;4985870;28;20046;-76
2023/06/06 07:57:45;;;;;;;4.90;2.88;;;20.00;67.00;;;;;;4986938;28;20415;-77
2023/06/06 08:00:12;;;;;;;3.67;3.38;;;20.00;67.00;;;;;;4994684;28;20050;-76
2023/06/06 08:02:39;;;;;;;3.30;2.92;;;20.00;66.90;;;;;;5003374;28;20084;-76
2023/06/06 08:05:06;;;;;;;3.03;2.85;;;20.10;66.90;;;;;;5007034;28;20117;-76
2023/06/06 08:07:34;;;;;;;2.80;2.70;;;20.10;66.70;;;;;;5005536;28;20048;-76
2023/06/06 08:10:00;;;;;;;2.85;2.65;;;20.20;66.70;;;;;;5000001;28;20076;-76
2023/06/06 08:12:26;;;;;;;2.53;2.42;;;20.10;66.70;;;;;;5006232;28;20046;-76
2023/06/06 08:14:51;;;;;;;2.80;2.60;;;20.10;66.70;;;;;;5004559;28;20034;-77
2023/06/06 08:17:17;;;;;;;2.38;2.17;;;20.20;66.70;;;;;;5005440;28;20042;-76
2023/06/06 08:19:43;;;;;;;2.45;2.25;;;20.20;66.70;;;;;;4992377;28;20104;-76
2023/06/06 08:22:09;;;;;;;2.45;2.35;;;20.20;67.40;;;;;;4999948;28;20041;-77
2023/06/06 08:24:34;;;;;;;2.42;2.33;;;20.30;66.60;;;;;;5003841;28;20496;-76
2023/06/06 08:27:00;;;;;;;3.17;2.90;;;20.30;66.50;;;;;;5002987;28;20046;-77
2023/06/06 08:29:26;;;;;;;2.50;2.40;;;20.30;66.40;;;;;;5006274;28;20042;-77
2023/06/06 08:31:53;;;;;;;2.60;2.50;;;20.30;66.40;;;;;;5005249;28;20427;-76
2023/06/06 08:34:19;;;;;;;2.92;2.72;;;20.40;66.40;;;;;;5004279;28;20049;-77
2023/06/06 08:36:45;;;;;;;2.60;2.40;;;20.40;66.20;;;;;;5002513;28;20042;-77
2023/06/06 08:39:11;;;;;;;2.60;2.40;;;20.40;66.30;;;;;;5003662;28;20042;-77
2023/06/06 08:41:38;;;;;;;2.63;2.50;;;20.40;66.30;;;;;;5005306;28;20103;-76
2023/06/06 08:44:03;;;;;;;2.97;2.67;;;20.50;66.30;;;;;;5000967;28;20057;-76
2023/06/06 08:46:33;;;;;;;1.90;1.80;;;20.50;66.30;;;;;;5004218;28;20104;-77
2023/06/06 08:49:03;;;;;;;2.40;2.30;;;20.50;66.30;;;;;;4999055;28;20507;-77
2023/06/06 08:51:28;;;;;;;2.20;2.10;;;20.50;66.40;;;;;;5001155;28;20499;-76
2023/06/06 08:53:55;;;;;;;1.92;1.83;;;20.60;66.30;;;;;;5019187;28;20125;-76
2023/06/06 08:56:22;;;;;;;2.70;2.50;;;20.60;66.20;;;;;;5005460;28;20061;-76
2023/06/06 08:58:49;;;;;;;3.17;2.80;;;20.60;66.20;;;;;;5002484;28;20447;-76
2023/06/06 09:01:15;;;;;;;2.65;2.55;;;20.60;66.20;;;;;;5003224;28;20049;-77
2023/06/06 09:03:43;;;;;;;2.50;2.20;;;20.60;66.30;;;;;;5001844;28;20507;-76
2023/06/06 09:06:08;;;;;;;2.40;2.22;;;20.60;66.20;;;;;;5004539;28;20056;-77
2023/06/06 09:08:34;;;;;;;2.50;2.40;;;20.70;66.10;;;;;;5003130;28;20420;-76
2023/06/06 09:11:00;;;;;;;2.30;2.20;;;20.70;66.30;;;;;;5005700;28;20056;-76
2023/06/06 09:13:25;;;;;;;2.10;2.00;;;20.70;66.90;;;;;;5005293;28;20056;-76
2023/06/06 09:15:51;;;;;;;2.50;2.40;;;20.70;66.40;;;;;;4987779;28;20037;-76
2023/06/06 09:18:16;;;;;;;2.50;2.40;;;20.70;66.50;;;;;;5017741;28;20511;-77
2023/06/06 09:20:42;;;;;;;2.60;2.50;;;20.70;66.10;;;;;;5001897;28;20057;-76
2023/06/06 09:23:14;;;;;;;2.42;2.33;;;20.70;66.10;;;;;;4995305;28;20064;-76
2023/06/06 09:25:43;;;;;;;2.30;2.20;;;20.80;66.20;;;;;;4987628;28;20487;-77
2023/06/06 09:28:09;;;;;;;2.05;1.95;;;20.80;66.20;;;;;;5003227;28;20057;-76
2023/06/06 09:30:35;;;;;;;2.42;2.33;;;20.80;66.20;;;;;;4999137;28;20074;-76
2023/06/06 09:33:02;;;;;;;2.22;2.13;;;20.80;66.00;;;;;;4998920;28;20061;-76
2023/06/06 09:35:35;;;;;;;2.20;2.10;;;20.80;66.10;;;;;;5004023;28;20183;-77
2023/06/06 09:38:15;;;;;;;1.98;1.88;;;20.90;66.00;;;;;;5000330;28;20054;-77
2023/06/06 09:40:45;;;;;;;2.10;2.00;;;20.90;66.00;;;;;;4998183;28;20034;-77
2023/06/06 09:43:11;;;;;;;2.00;1.90;;;20.90;66.10;;;;;;4994516;28;20447;-77
2023/06/06 09:45:46;;;;;;;2.42;2.33;;;20.90;66.10;;;;;;5002176;28;20037;-76
2023/06/06 09:48:12;;;;;;;2.60;2.40;;;20.90;66.10;;;;;;5002310;28;20092;-77
2023/06/06 09:50:41;;;;;;;2.13;2.03;;;20.90;66.10;;;;;;5005971;28;20046;-77
2023/06/06 09:53:06;;;;;;;2.20;2.10;;;20.90;66.00;;;;;;5019711;28;20045;-76
2023/06/06 09:55:32;;;;;;;2.25;2.15;;;21.00;66.20;;;;;;5015146;28;20058;-76
2023/06/06 09:57:57;;;;;;;2.40;2.30;;;21.00;66.10;;;;;;5002546;28;20424;-76
2023/06/06 10:00:23;;;;;;;1.55;1.50;;;21.00;66.20;;;;;;5003695;28;20049;-76
2023/06/06 10:02:49;;;;;;;2.15;2.05;;;21.00;66.20;;;;;;4997829;28;20045;-77
2023/06/06 10:05:15;;;;;;;2.03;1.92;;;21.00;66.20;;;;;;4995007;28;20113;-77
2023/06/06 10:07:44;;;;;;;2.00;1.90;;;21.00;66.30;;;;;;5003878;28;20100;-76
2023/06/06 10:10:11;;;;;;;2.00;1.90;;;21.00;66.10;;;;;;5001944;28;20037;-76
2023/06/06 10:12:37;;;;;;;1.98;1.95;;;21.00;66.20;;;;;;5003126;28;20042;-76
2023/06/06 10:15:03;;;;;;;2.40;2.20;;;21.00;66.00;;;;;;5015763;28;20044;-77
2023/06/06 10:17:29;;;;;;;2.05;1.95;;;21.00;66.00;;;;;;5004699;28;20053;-77
2023/06/06 10:19:55;;;;;;;2.10;2.00;;;21.00;66.10;;;;;;5001073;28;20054;-76
2023/06/06 10:22:21;;;;;;;1.77;1.67;;;21.10;66.20;;;;;;4998777;28;20046;-77
2023/06/06 10:24:47;;;;;;;2.08;1.98;;;21.10;66.20;;;;;;4996251;28;20431;-76
2023/06/06 10:27:20;;;;;;;2.10;2.00;;;21.10;66.10;;;;;;5000663;28;20523;-76
2023/06/06 10:30:17;;;;;;;2.10;2.00;;;21.10;66.10;;;;;;5007185;28;20046;-76
2023/06/06 10:33:05;;;;;;;1.80;1.73;;;21.10;66.20;;;;;;5020910;28;20061;-77
2023/06/06 10:35:30;;;;;;;2.08;1.98;;;21.10;66.20;;;;;;5018590;28;20123;-76
2023/06/06 10:38:07;;;;;;;1.80;1.70;;;21.10;66.30;;;;;;5006917;28;20080;-76
2023/06/06 10:40:42;;;;;;;2.10;2.00;;;21.10;66.10;;;;;;5004658;28;20046;-76
2023/06/06 10:43:10;;;;;;;2.17;2.08;;;21.10;66.20;;;;;;5003445;28;20065;-76
2023/06/06 10:45:45;;;;;;;1.98;1.88;;;21.20;66.30;;;;;;5000387;28;20042;-77
2023/06/06 10:48:11;;;;;;;2.13;2.03;;;21.20;66.20;;;;;;4647075;28;10000181;-76
2023/06/06 10:50:37;;;;;;;2.00;1.90;;;21.20;66.10;;;;;;5001136;28;20050;-76
2023/06/06 10:53:06;;;;;;;1.92;1.83;;;21.20;65.60;;;;;;4985146;28;20044;-76
2023/06/06 10:55:32;;;;;;;1.95;1.85;;;21.30;65.40;;;;;;5017368;28;20073;-76
2023/06/06 10:58:40;;;;;;;2.30;2.20;;;21.30;65.40;;;;;;4997418;28;20057;-76
2023/06/06 11:01:06;;;;;;;1.98;1.88;;;21.30;65.30;;;;;;4991254;28;20041;-77
2023/06/06 11:03:32;;;;;;;1.85;1.80;;;21.30;65.30;;;;;;5005171;28;20453;-75
2023/06/06 11:06:00;;;;;;;2.10;2.00;;;21.40;65.30;;;;;;5004336;28;20125;-75
2023/06/06 11:08:37;;;;;;;1.70;1.60;;;21.30;65.30;;;;;;5018566;28;22414;-75
2023/06/06 11:11:15;;;;;;;2.00;1.90;;;21.40;65.20;;;;;;4999471;28;20570;-75
2023/06/06 11:13:56;;;;;;;2.05;1.95;;;21.40;65.30;;;;;;4998220;28;20045;-75
2023/06/06 11:16:31;;;;;;;2.22;2.13;;;21.40;65.20;;;;;;4995620;28;20899;-76
2023/06/06 11:19:03;;;;;;;2.08;1.98;;;21.40;65.20;;;;;;4996641;28;20095;-76
2023/06/06 11:21:29;;;;;;;2.55;2.38;;;21.40;65.30;;;;;;5004162;28;20096;-76
2023/06/06 11:23:55;;;;;;;2.30;2.20;;;21.40;65.30;;;;;;5001661;28;20052;-76
2023/06/06 11:26:21;;;;;;;2.00;1.90;;;21.40;65.50;;;;;;5004576;28;20285;-77
2023/06/06 11:28:46;;;;;;;1.83;1.83;;;21.40;65.20;;;;;;4998681;28;20030;-77
2023/06/06 11:31:12;;;;;;;2.22;2.13;;;21.40;65.20;;;;;;5003000;28;20073;-76
2023/06/06 11:33:37;;;;;;;2.40;2.30;;;21.40;65.20;;;;;;5004858;28;20068;-77
2023/06/06 11:36:03;;;;;;;1.90;1.83;;;21.40;65.20;;;;;;5019006;28;20091;-77
2023/06/06 11:38:29;;;;;;;2.10;2.00;;;21.50;65.20;;;;;;5006333;28;20076;-77
2023/06/06 11:40:54;;;;;;;1.73;1.73;;;21.50;65.10;;;;;;5007661;28;20046;-77
2023/06/06 11:43:20;;;;;;;2.10;2.00;;;21.50;65.30;;;;;;4988753;28;20112;-77
2023/06/06 11:46:03;;;;;;;1.92;1.83;;;21.50;65.30;;;;;;5005504;28;20174;-77
2023/06/06 11:48:29;;;;;;;1.80;1.70;;;21.50;65.30;;;;;;5003495;28;20053;-77
2023/06/06 11:50:54;;;;;;;1.75;1.65;;;21.50;65.70;;;;;;5019141;28;20042;-77
2023/06/06 11:53:30;;;;;;;1.58;1.50;;;21.50;65.30;;;;;;5021763;28;20508;-76
2023/06/06 11:55:55;;;;;;;1.80;1.70;;;21.50;65.30;;;;;;5000403;28;20046;-77
2023/06/06 11:58:21;;;;;;;2.05;1.95;;;21.50;65.50;;;;;;4994780;28;20109;-76
2023/06/06 12:00:47;;;;;;;3.22;1.80;;;21.50;65.60;;;;;;5003364;28;20552;-77
2023/06/06 12:03:16;;;;;;;1.63;1.60;;;21.50;65.50;;;;;;5006271;28;20133;-77
2023/06/06 12:05:42;;;;;;;2.17;2.08;;;21.50;65.80;;;;;;4989710;28;20066;-77
2023/06/06 12:08:08;;;;;;;2.20;2.10;;;21.50;65.60;;;;;;5007276;28;20088;-74
2023/06/06 12:10:33;;;;;;;2.60;1.92;;;21.60;65.50;;;;;;5006696;28;20068;-77
2023/06/06 12:12:59;;;;;;;2.20;2.10;;;21.60;66.00;;;;;;5002261;28;20038;-77
2023/06/06 12:15:43;;;;;;;2.33;2.22;;;21.60;66.10;;;;;;5004176;28;20053;-77
2023/06/06 12:18:08;;;;;;;2.70;2.45;;;21.60;65.90;;;;;;5003636;28;20172;-77
2023/06/06 12:20:34;;;;;;;3.38;2.30;;;21.60;65.70;;;;;;5002614;28;20134;-77
2023/06/06 12:23:00;;;;;;;2.33;2.22;;;21.60;65.50;;;;;;4987546;28;20059;-77
2023/06/06 12:25:28;;;;;;;2.90;2.30;;;21.60;65.40;;;;;;5003782;28;20368;-76
2023/06/06 12:27:54;;;;;;;2.13;2.03;;;21.60;65.30;;;;;;4987848;28;20503;-77
2023/06/06 12:30:32;;;;;;;2.53;2.42;;;21.60;65.30;;;;;;5005910;28;20042;-77
2023/06/06 12:33:01;;;;;;;2.10;2.00;;;21.60;65.20;;;;;;5006080;28;20069;-77
2023/06/06 12:35:27;;;;;;;2.25;2.15;;;21.70;65.10;;;;;;5007376;28;20041;-76
2023/06/06 12:37:52;;;;;;;2.90;2.70;;;21.70;64.80;;;;;;5010092;28;20571;-77
2023/06/06 12:40:18;;;;;;;2.22;2.13;;;21.70;65.50;;;;;;4991467;28;20044;-77
2023/06/06 12:42:54;;;;;;;2.20;2.10;;;21.60;65.30;;;;;;5002235;28;20113;-77
2023/06/06 12:45:20;;;;;;;2.40;2.30;;;21.60;65.30;;;;;;5002871;28;20129;-77